sensor_id;sensor_type;location;lat;lon;timestamp;P1;durP1;ratioP1;P2;durP2;ratioP2
58992;SDS011;44782;0.000;0.000;2022-11-30T00:00:58;2.70;;;2.50;;
58992;SDS011;44782;0.000;0.000;2022-11-30T00:03:14;2.60;;;2.40;;
58992;SDS011;44782;0.000;0.000;2022-11-30T00:05:29;2.80;;;2.40;;
58992;SDS011;44782;0.000;0.000;2022-11-30T00:07:45;3.00;;;2.80;;
58992;SDS011;44782;0.000;0.000;2022-11-30T00:10:01;2.87;;;2.67;;
58992;SDS011;44782;0.000;0.000;2022-11-30T00:12:17;2.80;;;2.60;;
58992;SDS011;44782;0.000;0.000;2022-11-30T00:14:32;2.77;;;2.57;;
58992;SDS011;44782;0.000;0.000;2022-11-30T00:16:48;2.80;;;2.60;;
58992;SDS011;44782;0.000;0.000;2022-11-30T00:19:03;3.00;;;2.80;;
58992;SDS011;44782;0.000;0.000;2022-11-30T00:21:19;2.50;;;2.30;;
58992;SDS011;44782;0.000;0.000;2022-11-30T00:23:35;2.67;;;2.47;;
58992;SDS011;44782;0.000;0.000;2022-11-30T00:25:53;3.70;;;2.50;;
58992;SDS011;44782;0.000;0.000;2022-11-30T00:28:08;2.80;;;2.60;;
58992;SDS011;44782;0.000;0.000;2022-11-30T00:30:24;2.50;;;2.30;;
58992;SDS011;44782;0.000;0.000;2022-11-30T00:32:39;2.70;;;2.50;;
58992;SDS011;44782;0.000;0.000;2022-11-30T00:34:55;2.50;;;2.30;;
58992;SDS011;44782;0.000;0.000;2022-11-30T00:37:11;2.73;;;2.53;;
58992;SDS011;44782;0.000;0.000;2022-11-30T00:39:26;2.67;;;2.47;;
58992;SDS011;44782;0.000;0.000;2022-11-30T00:41:42;2.40;;;2.20;;
58992;SDS011;44782;0.000;0.000;2022-11-30T00:43:57;2.63;;;2.43;;
58992;SDS011;44782;0.000;0.000;2022-11-30T00:46:13;2.40;;;2.20;;
58992;SDS011;44782;0.000;0.000;2022-11-30T00:48:29;2.63;;;2.43;;
58992;SDS011;44782;0.000;0.000;2022-11-30T00:50:45;2.77;;;2.57;;
58992;SDS011;44782;0.000;0.000;2022-11-30T00:53:02;2.27;;;2.13;;
58992;SDS011;44782;0.000;0.000;2022-11-30T00:55:18;2.70;;;2.50;;
58992;SDS011;44782;0.000;0.000;2022-11-30T00:57:35;2.53;;;2.33;;
58992;SDS011;44782;0.000;0.000;2022-11-30T00:59:50;2.63;;;2.43;;
58992;SDS011;44782;0.000;0.000;2022-11-30T01:02:06;2.70;;;2.50;;
58992;SDS011;44782;0.000;0.000;2022-11-30T01:04:22;2.50;;;2.30;;
58992;SDS011;44782;0.000;0.000;2022-11-30T01:06:38;2.20;;;2.10;;
58992;SDS011;44782;0.000;0.000;2022-11-30T01:08:53;2.53;;;2.33;;
58992;SDS011;44782;0.000;0.000;2022-11-30T01:11:42;2.80;;;2.60;;
58992;SDS011;44782;0.000;0.000;2022-11-30T01:13:51;2.50;;;2.30;;
58992;SDS011;44782;0.000;0.000;2022-11-30T01:16:08;2.50;;;2.30;;
58992;SDS011;44782;0.000;0.000;2022-11-30T01:18:25;2.57;;;2.37;;
58992;SDS011;44782;0.000;0.000;2022-11-30T01:20:41;2.50;;;2.30;;
58992;SDS011;44782;0.000;0.000;2022-11-30T01:22:57;2.50;;;2.30;;
58992;SDS011;44782;0.000;0.000;2022-11-30T01:25:13;2.53;;;2.33;;
58992;SDS011;44782;0.000;0.000;2022-11-30T01:27:28;2.30;;;2.10;;
58992;SDS011;44782;0.000;0.000;2022-11-30T01:29:44;2.90;;;2.40;;
58992;SDS011;44782;0.000;0.000;2022-11-30T01:34:17;2.47;;;2.27;;
58992;SDS011;44782;0.000;0.000;2022-11-30T01:36:34;2.53;;;2.33;;
58992;SDS011;44782;0.000;0.000;2022-11-30T01:38:53;2.67;;;2.47;;
58992;SDS011;44782;0.000;0.000;2022-11-30T01:41:11;2.80;;;2.60;;
58992;SDS011;44782;0.000;0.000;2022-11-30T01:43:39;2.50;;;2.30;;
58992;SDS011;44782;0.000;0.000;2022-11-30T01:45:55;2.43;;;2.23;;
58992;SDS011;44782;0.000;0.000;2022-11-30T01:48:11;2.63;;;2.43;;
58992;SDS011;44782;0.000;0.000;2022-11-30T01:50:28;2.50;;;2.30;;
58992;SDS011;44782;0.000;0.000;2022-11-30T01:52:51;2.53;;;2.33;;
58992;SDS011;44782;0.000;0.000;2022-11-30T01:55:13;2.20;;;2.00;;
58992;SDS011;44782;0.000;0.000;2022-11-30T01:57:41;2.63;;;2.43;;
58992;SDS011;44782;0.000;0.000;2022-11-30T02:00:11;2.50;;;2.30;;
58992;SDS011;44782;0.000;0.000;2022-11-30T02:02:32;2.40;;;2.20;;
58992;SDS011;44782;0.000;0.000;2022-11-30T02:05:06;2.50;;;2.30;;
58992;SDS011;44782;0.000;0.000;2022-11-30T02:07:22;2.60;;;2.40;;
58992;SDS011;44782;0.000;0.000;2022-11-30T02:09:39;2.40;;;2.20;;
58992;SDS011;44782;0.000;0.000;2022-11-30T02:11:57;2.60;;;2.40;;
58992;SDS011;44782;0.000;0.000;2022-11-30T02:29:32;2.67;;;2.47;;
58992;SDS011;44782;0.000;0.000;2022-11-30T02:34:12;2.80;;;2.60;;
58992;SDS011;44782;0.000;0.000;2022-11-30T02:36:31;3.00;;;2.80;;
58992;SDS011;44782;0.000;0.000;2022-11-30T02:38:47;3.17;;;2.87;;
58992;SDS011;44782;0.000;0.000;2022-11-30T02:41:03;3.20;;;2.90;;
58992;SDS011;44782;0.000;0.000;2022-11-30T02:43:20;3.10;;;2.80;;
58992;SDS011;44782;0.000;0.000;2022-11-30T02:51:05;3.20;;;2.90;;
58992;SDS011;44782;0.000;0.000;2022-11-30T02:53:23;2.93;;;2.73;;
58992;SDS011;44782;0.000;0.000;2022-11-30T02:55:39;2.83;;;2.63;;
58992;SDS011;44782;0.000;0.000;2022-11-30T02:57:55;3.00;;;2.70;;
58992;SDS011;44782;0.000;0.000;2022-11-30T03:00:11;3.53;;;2.97;;
58992;SDS011;44782;0.000;0.000;2022-11-30T03:02:27;3.37;;;3.10;;
58992;SDS011;44782;0.000;0.000;2022-11-30T03:04:43;3.20;;;3.00;;
58992;SDS011;44782;0.000;0.000;2022-11-30T03:06:58;3.20;;;2.90;;
58992;SDS011;44782;0.000;0.000;2022-11-30T03:09:14;3.57;;;3.27;;
58992;SDS011;44782;0.000;0.000;2022-11-30T03:11:30;3.50;;;3.20;;
58992;SDS011;44782;0.000;0.000;2022-11-30T03:13:45;3.03;;;2.73;;
58992;SDS011;44782;0.000;0.000;2022-11-30T03:16:05;3.10;;;2.90;;
58992;SDS011;44782;0.000;0.000;2022-11-30T03:18:24;3.10;;;2.90;;
58992;SDS011;44782;0.000;0.000;2022-11-30T03:20:41;2.87;;;2.67;;
58992;SDS011;44782;0.000;0.000;2022-11-30T03:23:00;2.90;;;2.67;;
58992;SDS011;44782;0.000;0.000;2022-11-30T03:25:16;2.73;;;2.53;;
58992;SDS011;44782;0.000;0.000;2022-11-30T03:27:31;2.80;;;2.60;;
58992;SDS011;44782;0.000;0.000;2022-11-30T03:29:47;2.83;;;2.63;;
58992;SDS011;44782;0.000;0.000;2022-11-30T03:32:03;2.80;;;2.60;;
58992;SDS011;44782;0.000;0.000;2022-11-30T03:34:18;2.60;;;2.40;;
58992;SDS011;44782;0.000;0.000;2022-11-30T03:36:34;2.73;;;2.53;;
58992;SDS011;44782;0.000;0.000;2022-11-30T03:38:50;2.60;;;2.40;;
58992;SDS011;44782;0.000;0.000;2022-11-30T03:41:06;2.70;;;2.50;;
58992;SDS011;44782;0.000;0.000;2022-11-30T03:43:24;2.70;;;2.50;;
58992;SDS011;44782;0.000;0.000;2022-11-30T03:45:43;2.40;;;2.20;;
58992;SDS011;44782;0.000;0.000;2022-11-30T03:47:59;2.57;;;2.37;;
58992;SDS011;44782;0.000;0.000;2022-11-30T03:50:15;2.67;;;2.10;;
58992;SDS011;44782;0.000;0.000;2022-11-30T03:52:31;2.40;;;2.20;;
58992;SDS011;44782;0.000;0.000;2022-11-30T03:54:46;2.37;;;2.17;;
58992;SDS011;44782;0.000;0.000;2022-11-30T03:57:02;2.50;;;2.30;;
58992;SDS011;44782;0.000;0.000;2022-11-30T03:59:17;2.30;;;2.20;;
58992;SDS011;44782;0.000;0.000;2022-11-30T04:01:33;2.60;;;2.40;;
58992;SDS011;44782;0.000;0.000;2022-11-30T04:03:50;2.27;;;2.10;;
58992;SDS011;44782;0.000;0.000;2022-11-30T04:06:07;2.43;;;2.23;;
58992;SDS011;44782;0.000;0.000;2022-11-30T04:08:24;2.17;;;2.07;;
58992;SDS011;44782;0.000;0.000;2022-11-30T04:10:40;2.33;;;2.13;;
58992;SDS011;44782;0.000;0.000;2022-11-30T04:12:56;2.17;;;2.07;;
58992;SDS011;44782;0.000;0.000;2022-11-30T04:15:11;2.20;;;2.10;;
58992;SDS011;44782;0.000;0.000;2022-11-30T04:17:27;2.30;;;2.20;;
58992;SDS011;44782;0.000;0.000;2022-11-30T04:19:43;2.20;;;2.10;;
58992;SDS011;44782;0.000;0.000;2022-11-30T04:21:58;2.10;;;2.00;;
58992;SDS011;44782;0.000;0.000;2022-11-30T04:24:14;2.23;;;2.10;;
58992;SDS011;44782;0.000;0.000;2022-11-30T04:26:29;1.93;;;1.83;;
58992;SDS011;44782;0.000;0.000;2022-11-30T04:28:45;2.20;;;2.00;;
58992;SDS011;44782;0.000;0.000;2022-11-30T04:31:00;2.30;;;2.10;;
58992;SDS011;44782;0.000;0.000;2022-11-30T04:33:16;2.17;;;2.07;;
58992;SDS011;44782;0.000;0.000;2022-11-30T04:35:32;2.20;;;2.10;;
58992;SDS011;44782;0.000;0.000;2022-11-30T04:37:48;2.60;;;2.20;;
58992;SDS011;44782;0.000;0.000;2022-11-30T04:40:04;2.07;;;1.87;;
58992;SDS011;44782;0.000;0.000;2022-11-30T04:42:20;2.00;;;1.90;;
58992;SDS011;44782;0.000;0.000;2022-11-30T04:44:36;2.17;;;2.07;;
58992;SDS011;44782;0.000;0.000;2022-11-30T04:46:52;2.17;;;2.07;;
58992;SDS011;44782;0.000;0.000;2022-11-30T04:49:07;2.40;;;2.20;;
58992;SDS011;44782;0.000;0.000;2022-11-30T04:51:23;2.50;;;2.30;;
58992;SDS011;44782;0.000;0.000;2022-11-30T04:53:39;2.20;;;2.00;;
58992;SDS011;44782;0.000;0.000;2022-11-30T04:55:54;2.07;;;1.97;;
58992;SDS011;44782;0.000;0.000;2022-11-30T04:58:10;2.10;;;2.00;;
58992;SDS011;44782;0.000;0.000;2022-11-30T05:00:26;2.27;;;2.17;;
58992;SDS011;44782;0.000;0.000;2022-11-30T05:02:41;2.30;;;2.10;;
58992;SDS011;44782;0.000;0.000;2022-11-30T05:04:57;2.47;;;2.27;;
58992;SDS011;44782;0.000;0.000;2022-11-30T05:07:13;2.20;;;2.00;;
58992;SDS011;44782;0.000;0.000;2022-11-30T05:09:28;2.37;;;2.17;;
58992;SDS011;44782;0.000;0.000;2022-11-30T05:11:44;2.40;;;2.20;;
58992;SDS011;44782;0.000;0.000;2022-11-30T05:14:01;2.17;;;2.07;;
58992;SDS011;44782;0.000;0.000;2022-11-30T05:16:16;2.00;;;1.90;;
58992;SDS011;44782;0.000;0.000;2022-11-30T05:18:32;2.33;;;2.13;;
58992;SDS011;44782;0.000;0.000;2022-11-30T05:20:48;1.90;;;1.80;;
58992;SDS011;44782;0.000;0.000;2022-11-30T05:23:04;2.00;;;1.90;;
58992;SDS011;44782;0.000;0.000;2022-11-30T05:25:20;2.27;;;2.10;;
58992;SDS011;44782;0.000;0.000;2022-11-30T05:27:36;2.33;;;2.13;;
58992;SDS011;44782;0.000;0.000;2022-11-30T05:29:51;2.10;;;1.90;;
58992;SDS011;44782;0.000;0.000;2022-11-30T05:32:07;2.03;;;1.93;;
58992;SDS011;44782;0.000;0.000;2022-11-30T05:34:23;2.13;;;1.93;;
58992;SDS011;44782;0.000;0.000;2022-11-30T05:36:38;2.07;;;1.97;;
58992;SDS011;44782;0.000;0.000;2022-11-30T05:38:54;1.90;;;1.80;;
58992;SDS011;44782;0.000;0.000;2022-11-30T05:41:10;2.30;;;2.10;;
58992;SDS011;44782;0.000;0.000;2022-11-30T05:43:25;2.13;;;2.03;;
58992;SDS011;44782;0.000;0.000;2022-11-30T05:45:41;2.20;;;2.00;;
58992;SDS011;44782;0.000;0.000;2022-11-30T05:47:57;2.17;;;2.07;;
58992;SDS011;44782;0.000;0.000;2022-11-30T05:50:12;2.30;;;2.10;;
58992;SDS011;44782;0.000;0.000;2022-11-30T05:52:28;1.80;;;1.70;;
58992;SDS011;44782;0.000;0.000;2022-11-30T05:54:44;1.90;;;1.80;;
58992;SDS011;44782;0.000;0.000;2022-11-30T05:56:59;1.97;;;1.87;;
58992;SDS011;44782;0.000;0.000;2022-11-30T05:59:15;2.00;;;1.90;;
58992;SDS011;44782;0.000;0.000;2022-11-30T06:01:31;1.80;;;1.70;;
58992;SDS011;44782;0.000;0.000;2022-11-30T06:03:46;2.10;;;2.00;;
58992;SDS011;44782;0.000;0.000;2022-11-30T06:06:02;1.93;;;1.83;;
58992;SDS011;44782;0.000;0.000;2022-11-30T06:08:18;1.80;;;1.70;;
58992;SDS011;44782;0.000;0.000;2022-11-30T06:10:34;2.00;;;1.90;;
58992;SDS011;44782;0.000;0.000;2022-11-30T06:12:50;1.97;;;1.80;;
58992;SDS011;44782;0.000;0.000;2022-11-30T06:15:06;2.10;;;2.00;;
58992;SDS011;44782;0.000;0.000;2022-11-30T06:17:22;1.80;;;1.70;;
58992;SDS011;44782;0.000;0.000;2022-11-30T06:19:38;2.23;;;1.80;;
58992;SDS011;44782;0.000;0.000;2022-11-30T06:21:53;1.83;;;1.73;;
58992;SDS011;44782;0.000;0.000;2022-11-30T06:24:09;1.90;;;1.80;;
58992;SDS011;44782;0.000;0.000;2022-11-30T06:26:25;1.90;;;1.80;;
58992;SDS011;44782;0.000;0.000;2022-11-30T06:28:40;1.97;;;1.87;;
58992;SDS011;44782;0.000;0.000;2022-11-30T06:30:59;2.33;;;2.13;;
58992;SDS011;44782;0.000;0.000;2022-11-30T06:33:16;1.80;;;1.70;;
58992;SDS011;44782;0.000;0.000;2022-11-30T06:35:36;2.13;;;2.00;;
58992;SDS011;44782;0.000;0.000;2022-11-30T06:37:58;2.03;;;1.93;;
58992;SDS011;44782;0.000;0.000;2022-11-30T06:40:14;1.90;;;1.80;;
58992;SDS011;44782;0.000;0.000;2022-11-30T06:42:31;2.10;;;1.90;;
58992;SDS011;44782;0.000;0.000;2022-11-30T06:44:47;2.33;;;2.13;;
58992;SDS011;44782;0.000;0.000;2022-11-30T06:47:03;2.20;;;2.00;;
58992;SDS011;44782;0.000;0.000;2022-11-30T06:49:18;1.90;;;1.80;;
58992;SDS011;44782;0.000;0.000;2022-11-30T06:51:34;2.07;;;1.97;;
58992;SDS011;44782;0.000;0.000;2022-11-30T06:53:51;2.50;;;2.30;;
58992;SDS011;44782;0.000;0.000;2022-11-30T06:56:07;2.10;;;2.00;;
58992;SDS011;44782;0.000;0.000;2022-11-30T06:58:23;2.13;;;2.00;;
58992;SDS011;44782;0.000;0.000;2022-11-30T07:00:38;2.00;;;1.90;;
58992;SDS011;44782;0.000;0.000;2022-11-30T07:02:55;2.17;;;2.00;;
58992;SDS011;44782;0.000;0.000;2022-11-30T07:05:10;2.30;;;2.10;;
58992;SDS011;44782;0.000;0.000;2022-11-30T07:07:29;2.17;;;2.07;;
58992;SDS011;44782;0.000;0.000;2022-11-30T07:09:45;2.50;;;2.30;;
58992;SDS011;44782;0.000;0.000;2022-11-30T07:12:01;2.30;;;2.10;;
58992;SDS011;44782;0.000;0.000;2022-11-30T07:14:17;2.47;;;2.27;;
58992;SDS011;44782;0.000;0.000;2022-11-30T07:16:33;2.60;;;2.40;;
58992;SDS011;44782;0.000;0.000;2022-11-30T07:18:49;2.30;;;2.10;;
58992;SDS011;44782;0.000;0.000;2022-11-30T07:21:04;2.40;;;2.20;;
58992;SDS011;44782;0.000;0.000;2022-11-30T07:23:21;2.43;;;2.23;;
58992;SDS011;44782;0.000;0.000;2022-11-30T07:25:58;2.47;;;2.27;;
58992;SDS011;44782;0.000;0.000;2022-11-30T07:28:21;2.50;;;2.30;;
58992;SDS011;44782;0.000;0.000;2022-11-30T07:30:37;2.60;;;2.40;;
58992;SDS011;44782;0.000;0.000;2022-11-30T07:32:52;2.60;;;2.40;;
58992;SDS011;44782;0.000;0.000;2022-11-30T07:35:08;2.77;;;2.43;;
58992;SDS011;44782;0.000;0.000;2022-11-30T07:37:24;2.57;;;2.37;;
58992;SDS011;44782;0.000;0.000;2022-11-30T07:39:40;2.77;;;2.57;;
58992;SDS011;44782;0.000;0.000;2022-11-30T07:41:56;2.70;;;2.50;;
58992;SDS011;44782;0.000;0.000;2022-11-30T07:44:11;2.80;;;2.60;;
58992;SDS011;44782;0.000;0.000;2022-11-30T07:46:27;2.80;;;2.60;;
58992;SDS011;44782;0.000;0.000;2022-11-30T07:48:43;2.90;;;2.70;;
58992;SDS011;44782;0.000;0.000;2022-11-30T07:51:18;3.10;;;2.80;;
58992;SDS011;44782;0.000;0.000;2022-11-30T07:53:35;2.90;;;2.70;;
58992;SDS011;44782;0.000;0.000;2022-11-30T07:55:51;3.10;;;2.67;;
58992;SDS011;44782;0.000;0.000;2022-11-30T07:58:06;3.50;;;3.00;;
58992;SDS011;44782;0.000;0.000;2022-11-30T08:00:23;2.97;;;2.77;;
58992;SDS011;44782;0.000;0.000;2022-11-30T08:02:39;2.97;;;2.77;;
58992;SDS011;44782;0.000;0.000;2022-11-30T08:04:55;3.20;;;2.93;;
58992;SDS011;44782;0.000;0.000;2022-11-30T08:07:12;2.80;;;2.60;;
58992;SDS011;44782;0.000;0.000;2022-11-30T08:09:28;3.13;;;2.93;;
58992;SDS011;44782;0.000;0.000;2022-11-30T08:11:44;3.37;;;3.17;;
58992;SDS011;44782;0.000;0.000;2022-11-30T08:14:00;2.97;;;2.77;;
58992;SDS011;44782;0.000;0.000;2022-11-30T08:16:18;3.70;;;3.40;;
58992;SDS011;44782;0.000;0.000;2022-11-30T08:18:35;3.50;;;3.20;;
58992;SDS011;44782;0.000;0.000;2022-11-30T08:21:04;3.50;;;3.17;;
58992;SDS011;44782;0.000;0.000;2022-11-30T08:23:20;3.23;;;3.00;;
58992;SDS011;44782;0.000;0.000;2022-11-30T08:25:36;4.20;;;3.80;;
58992;SDS011;44782;0.000;0.000;2022-11-30T08:27:52;3.90;;;3.60;;
58992;SDS011;44782;0.000;0.000;2022-11-30T08:30:08;4.50;;;4.20;;
58992;SDS011;44782;0.000;0.000;2022-11-30T08:32:23;4.13;;;3.73;;
58992;SDS011;44782;0.000;0.000;2022-11-30T08:34:39;4.30;;;3.50;;
58992;SDS011;44782;0.000;0.000;2022-11-30T08:36:55;4.83;;;3.53;;
58992;SDS011;44782;0.000;0.000;2022-11-30T08:39:10;4.83;;;4.27;;
